createdAt,value
2019-01-24T00:01:26.221Z,9.80
2019-01-24T00:03:52.879Z,9.80
2019-01-24T00:06:19.598Z,9.48
2019-01-24T00:08:46.208Z,9.40
2019-01-24T00:11:12.840Z,9.45
2019-01-24T00:13:39.418Z,10.08
2019-01-24T00:16:06.016Z,9.18
2019-01-24T00:18:32.690Z,9.80
2019-01-24T00:20:59.345Z,9.38
2019-01-24T00:23:25.937Z,8.85
2019-01-24T00:25:52.581Z,9.40
2019-01-24T00:28:19.179Z,9.30
2019-01-24T00:30:45.810Z,9.20
2019-01-24T00:33:12.471Z,9.00
2019-01-24T00:35:39.086Z,8.80
2019-01-24T00:38:05.663Z,9.98
2019-01-24T00:40:32.287Z,8.68
2019-01-24T00:42:58.863Z,8.75
2019-01-24T00:45:25.433Z,8.73
2019-01-24T00:47:52.119Z,8.63
2019-01-24T00:50:18.798Z,8.93
2019-01-24T00:52:45.372Z,9.08
2019-01-24T00:55:12.036Z,9.50
2019-01-24T00:57:38.666Z,8.95
2019-01-24T01:00:05.249Z,8.55
2019-01-24T01:02:31.868Z,8.63
2019-01-24T01:04:58.443Z,8.25
2019-01-24T01:07:25.024Z,8.25
2019-01-24T01:09:51.884Z,8.53
2019-01-24T01:12:18.462Z,9.18
2019-01-24T01:14:45.036Z,9.50
2019-01-24T01:17:11.665Z,9.85
2019-01-24T01:19:38.267Z,9.83
2019-01-24T01:22:04.835Z,8.58
2019-01-24T01:24:31.478Z,8.93
2019-01-24T01:26:58.050Z,8.05
2019-01-24T01:29:24.798Z,8.38
2019-01-24T01:31:51.469Z,9.23
2019-01-24T01:34:18.048Z,8.35
2019-01-24T01:36:44.625Z,8.10
2019-01-24T01:39:11.284Z,8.28
2019-01-24T01:41:37.851Z,8.73
2019-01-24T01:44:04.428Z,8.60
2019-01-24T01:46:31.050Z,8.78
2019-01-24T01:48:57.619Z,8.15
2019-01-24T01:51:24.231Z,8.73
2019-01-24T01:53:51.039Z,8.95
2019-01-24T01:56:17.629Z,8.05
2019-01-24T01:58:44.206Z,7.92
2019-01-24T02:01:10.818Z,7.62
2019-01-24T02:03:37.383Z,8.63
2019-01-24T02:06:03.968Z,8.38
2019-01-24T02:08:30.586Z,8.00
2019-01-24T02:10:57.167Z,7.72
2019-01-24T02:13:23.759Z,8.18
2019-01-24T02:15:50.584Z,7.25
2019-01-24T02:18:17.163Z,7.30
2019-01-24T02:20:43.765Z,7.17
2019-01-24T02:23:10.380Z,6.95
2019-01-24T02:25:36.959Z,8.23
2019-01-24T02:28:03.533Z,7.70
2019-01-24T02:30:30.169Z,7.62
2019-01-24T02:32:56.860Z,7.60
2019-01-24T02:35:23.461Z,6.83
2019-01-24T02:37:50.108Z,7.10
2019-01-24T02:40:16.686Z,7.08
2019-01-24T02:42:43.259Z,7.30
2019-01-24T02:45:09.890Z,7.42
2019-01-24T02:47:36.555Z,7.75
2019-01-24T02:50:03.131Z,7.10
2019-01-24T02:52:29.816Z,6.53
2019-01-24T02:54:56.422Z,7.40
2019-01-24T02:57:22.999Z,7.40
2019-01-24T02:59:49.718Z,7.40
2019-01-24T03:02:16.276Z,6.97
2019-01-24T03:04:42.847Z,6.72
2019-01-24T03:07:09.454Z,6.95
2019-01-24T03:09:36.032Z,6.97
2019-01-24T03:12:02.623Z,6.90
2019-01-24T03:14:29.262Z,7.42
2019-01-24T03:16:55.885Z,7.20
2019-01-24T03:19:22.472Z,7.33
2019-01-24T03:21:49.124Z,6.42
2019-01-24T03:24:15.693Z,6.05
2019-01-24T03:26:42.270Z,7.25
2019-01-24T03:29:08.899Z,6.75
2019-01-24T03:31:35.474Z,7.22
2019-01-24T03:34:02.047Z,6.97
2019-01-24T03:36:28.682Z,6.78
2019-01-24T03:38:55.263Z,6.58
2019-01-24T03:41:21.835Z,6.62
2019-01-24T03:43:48.532Z,7.20
2019-01-24T03:46:15.111Z,7.08
2019-01-24T03:48:41.689Z,7.05
2019-01-24T03:51:08.414Z,6.40
2019-01-24T03:53:35.007Z,6.35
2019-01-24T03:56:01.566Z,6.47
2019-01-24T03:58:28.407Z,6.58
2019-01-24T04:00:54.988Z,6.62
2019-01-24T04:03:21.592Z,6.58
2019-01-24T04:05:48.219Z,7.53
2019-01-24T04:08:14.785Z,7.37
2019-01-24T04:10:41.352Z,6.95
2019-01-24T04:13:07.980Z,6.00
2019-01-24T04:15:34.551Z,6.70
2019-01-24T04:18:01.126Z,6.97
2019-01-24T04:20:28.049Z,6.37
2019-01-24T04:22:54.623Z,6.78
2019-01-24T04:25:21.203Z,6.40
2019-01-24T04:27:47.932Z,6.95
2019-01-24T04:30:14.583Z,6.70
2019-01-24T04:32:41.151Z,6.85
2019-01-24T04:35:07.807Z,6.67
2019-01-24T04:37:34.390Z,6.58
2019-01-24T04:40:00.975Z,6.22
2019-01-24T04:42:27.661Z,6.35
2019-01-24T04:44:54.235Z,6.60
2019-01-24T04:47:20.809Z,6.55
2019-01-24T04:49:47.430Z,6.00
2019-01-24T04:52:14.289Z,5.87
2019-01-24T04:54:40.872Z,6.58
2019-01-24T04:57:07.481Z,7.15
2019-01-24T04:59:34.116Z,6.55
2019-01-24T05:02:00.684Z,5.70
2019-01-24T05:04:27.354Z,6.10
2019-01-24T05:06:53.917Z,6.33
2019-01-24T05:09:20.496Z,6.25
2019-01-24T05:11:47.126Z,5.72
2019-01-24T05:14:13.704Z,6.78
2019-01-24T05:16:40.288Z,6.00
2019-01-24T05:19:06.910Z,5.62
2019-01-24T05:21:33.481Z,6.70
2019-01-24T05:24:00.066Z,7.15
2019-01-24T05:26:26.713Z,6.92
2019-01-24T05:28:53.341Z,6.62
2019-01-24T05:31:19.937Z,6.47
2019-01-24T05:33:46.566Z,6.20
2019-01-24T05:36:13.149Z,6.90
2019-01-24T05:38:39.728Z,6.17
2019-01-24T05:41:06.450Z,7.42
2019-01-24T05:43:33.123Z,6.78
2019-01-24T05:45:59.695Z,6.33
2019-01-24T05:48:26.402Z,6.25
2019-01-24T05:50:52.962Z,6.17
2019-01-24T05:53:19.528Z,6.28
2019-01-24T05:55:46.287Z,7.17
2019-01-24T05:58:12.874Z,6.67
2019-01-24T06:00:39.456Z,6.12
2019-01-24T06:03:06.085Z,6.55
2019-01-24T06:05:32.675Z,6.85
2019-01-24T06:07:59.246Z,5.85
2019-01-24T06:10:26.210Z,6.10
2019-01-24T06:12:52.784Z,7.28
2019-01-24T06:15:19.364Z,6.12
2019-01-24T06:17:45.981Z,6.28
2019-01-24T06:20:12.557Z,7.15
2019-01-24T06:22:39.138Z,6.70
2019-01-24T06:25:05.778Z,6.83
2019-01-24T06:27:32.341Z,6.45
2019-01-24T06:29:58.917Z,6.37
2019-01-24T06:32:25.649Z,6.12
2019-01-24T06:34:52.268Z,6.67
2019-01-24T06:37:18.925Z,6.40
2019-01-24T06:39:45.549Z,5.90
2019-01-24T06:42:12.134Z,6.83
2019-01-24T06:44:38.736Z,6.35
2019-01-24T06:47:05.391Z,6.47
2019-01-24T06:49:31.975Z,6.22
2019-01-24T06:51:58.528Z,5.92
2019-01-24T06:54:25.177Z,6.53
2019-01-24T06:56:51.760Z,6.83
2019-01-24T06:59:18.337Z,7.15
2019-01-24T07:01:44.973Z,7.05
2019-01-24T07:04:11.538Z,6.35
2019-01-24T07:06:38.152Z,7.05
2019-01-24T07:09:04.777Z,6.22
2019-01-24T07:11:31.350Z,6.47
2019-01-24T07:13:57.926Z,5.58
2019-01-24T07:16:24.577Z,6.30
2019-01-24T07:18:51.159Z,6.62
2019-01-24T07:21:17.732Z,5.92
2019-01-24T07:23:44.343Z,6.40
2019-01-24T07:26:10.924Z,6.67
2019-01-24T07:28:37.577Z,6.08
2019-01-24T07:31:04.208Z,6.58
2019-01-24T07:33:30.776Z,6.45
2019-01-24T07:36:02.150Z,6.75
2019-01-24T07:38:25.771Z,6.92
2019-01-24T07:40:52.346Z,6.92
2019-01-24T07:43:19.206Z,6.55
2019-01-24T07:45:45.838Z,6.75
2019-01-24T07:48:13.263Z,7.08
2019-01-24T07:50:39.852Z,6.10
2019-01-24T07:53:06.474Z,6.25
2019-01-24T07:55:33.060Z,7.05
2019-01-24T07:57:59.637Z,6.83
2019-01-24T08:00:26.290Z,6.80
2019-01-24T08:02:52.874Z,6.40
2019-01-24T08:05:19.442Z,6.03
2019-01-24T08:07:46.144Z,6.17
2019-01-24T08:10:12.718Z,6.80
2019-01-24T08:12:39.392Z,7.12
2019-01-24T08:15:06.029Z,6.92
2019-01-24T08:17:32.666Z,6.58
2019-01-24T08:19:59.242Z,6.53
2019-01-24T08:22:25.903Z,6.50
2019-01-24T08:24:52.483Z,7.10
2019-01-24T08:27:19.052Z,7.10
2019-01-24T08:29:45.678Z,8.28
2019-01-24T08:32:12.253Z,6.72
2019-01-24T08:34:38.842Z,7.67
2019-01-24T08:37:06.836Z,6.90
2019-01-24T08:39:33.413Z,6.45
2019-01-24T08:42:00.016Z,6.67
2019-01-24T08:44:26.669Z,6.85
2019-01-24T08:46:55.377Z,7.10
2019-01-24T08:49:21.976Z,7.53
2019-01-24T08:51:48.591Z,6.70
2019-01-24T08:54:15.213Z,7.25
2019-01-24T08:56:41.781Z,7.12
2019-01-24T08:59:08.392Z,6.60
2019-01-24T09:01:34.961Z,6.50
2019-01-24T09:04:01.543Z,7.30
2019-01-24T09:06:28.221Z,7.05
2019-01-24T09:08:54.824Z,6.97
2019-01-24T09:11:21.392Z,7.00
2019-01-24T09:13:48.021Z,7.42
2019-01-24T09:16:14.668Z,7.50
2019-01-24T09:18:41.492Z,7.37
2019-01-24T09:21:08.212Z,6.62
2019-01-24T09:23:34.811Z,7.15
2019-01-24T09:26:01.387Z,7.33
2019-01-24T09:28:28.056Z,7.65
2019-01-24T09:30:54.640Z,7.20
2019-01-24T09:33:21.553Z,7.15
2019-01-24T09:35:48.194Z,7.17
2019-01-24T09:38:14.778Z,6.87
2019-01-24T09:40:41.339Z,7.70
2019-01-24T09:43:07.959Z,6.80
2019-01-24T09:45:34.529Z,7.25
2019-01-24T09:48:01.111Z,7.28
2019-01-24T09:50:27.763Z,7.85
2019-01-24T09:52:54.371Z,6.97
2019-01-24T09:55:20.957Z,7.75
2019-01-24T09:57:47.616Z,7.70
2019-01-24T10:00:15.633Z,7.20
2019-01-24T10:02:42.599Z,9.05
2019-01-24T10:05:09.222Z,7.50
2019-01-24T10:07:35.797Z,8.33
2019-01-24T10:10:02.373Z,7.50
2019-01-24T10:12:29.218Z,6.50
2019-01-24T10:14:55.803Z,6.60
2019-01-24T10:17:22.365Z,7.25
2019-01-24T10:19:48.985Z,7.60
2019-01-24T10:22:15.568Z,7.30
2019-01-24T10:24:42.208Z,6.85
2019-01-24T10:27:08.828Z,7.08
2019-01-24T10:29:35.489Z,8.08
2019-01-24T10:32:02.067Z,7.08
2019-01-24T10:34:36.768Z,7.60
2019-01-24T10:37:05.012Z,7.17
2019-01-24T10:39:31.616Z,7.70
2019-01-24T10:41:58.295Z,6.53
2019-01-24T10:44:24.882Z,7.70
2019-01-24T10:46:52.590Z,7.58
2019-01-24T10:49:19.286Z,7.37
2019-01-24T10:51:45.912Z,7.90
2019-01-24T10:54:12.533Z,7.58
2019-01-24T10:56:39.185Z,7.37
2019-01-24T10:59:05.759Z,7.90
2019-01-24T11:01:32.343Z,8.13
2019-01-24T11:03:59.104Z,8.28
2019-01-24T11:06:25.734Z,6.87
2019-01-24T11:08:52.311Z,7.50
2019-01-24T11:11:20.516Z,7.20
2019-01-24T11:13:47.095Z,7.30
2019-01-24T11:16:13.668Z,6.92
2019-01-24T11:18:40.442Z,6.65
2019-01-24T11:21:07.041Z,8.23
2019-01-24T11:23:33.615Z,7.85
2019-01-24T11:26:00.304Z,7.37
2019-01-24T11:28:27.531Z,7.35
2019-01-24T11:30:54.337Z,8.30
2019-01-24T11:33:21.086Z,7.20
2019-01-24T11:35:47.661Z,8.33
2019-01-24T11:38:14.249Z,7.65
2019-01-24T11:40:40.911Z,7.90
2019-01-24T11:43:07.492Z,7.87
2019-01-24T11:45:34.114Z,6.92
2019-01-24T11:48:00.770Z,7.47
2019-01-24T11:50:27.377Z,7.00
2019-01-24T11:52:53.995Z,8.08
2019-01-24T11:55:20.612Z,7.15
2019-01-24T11:57:47.259Z,7.53
2019-01-24T12:00:14.323Z,6.95
2019-01-24T12:02:42.309Z,7.40
2019-01-24T12:05:08.930Z,7.28
2019-01-24T12:07:35.521Z,6.95
2019-01-24T12:10:02.140Z,7.53
2019-01-24T12:12:28.719Z,7.58
2019-01-24T12:14:55.313Z,7.22
2019-01-24T12:17:21.936Z,7.60
2019-01-24T12:19:48.512Z,6.95
2019-01-24T12:22:15.093Z,6.75
2019-01-24T12:24:41.738Z,7.45
2019-01-24T12:27:08.322Z,8.03
2019-01-24T12:29:34.926Z,7.33
2019-01-24T12:32:01.543Z,8.00
2019-01-24T12:34:28.119Z,7.67
2019-01-24T12:36:54.706Z,7.17
2019-01-24T12:39:21.375Z,7.33
2019-01-24T12:41:47.937Z,7.20
2019-01-24T12:44:14.509Z,6.17
2019-01-24T12:46:41.218Z,6.83
2019-01-24T12:49:07.854Z,7.12
2019-01-24T12:51:34.416Z,7.67
2019-01-24T12:54:01.042Z,6.28
2019-01-24T12:56:27.620Z,6.60
2019-01-24T12:58:54.186Z,7.10
2019-01-24T13:01:20.815Z,7.55
2019-01-24T13:03:47.395Z,6.25
2019-01-24T13:06:13.972Z,6.87
2019-01-24T13:08:40.745Z,7.00
2019-01-24T13:11:07.640Z,6.17
2019-01-24T13:13:34.266Z,6.97
2019-01-24T13:16:00.901Z,7.37
2019-01-24T13:18:27.467Z,7.12
2019-01-24T13:20:54.064Z,7.22
2019-01-24T13:23:20.682Z,6.92
2019-01-24T13:25:47.276Z,7.17
2019-01-24T13:28:13.850Z,7.00
2019-01-24T13:30:40.519Z,5.62
2019-01-24T13:33:07.095Z,6.28
2019-01-24T13:35:33.658Z,6.90
2019-01-24T13:38:00.329Z,6.80
2019-01-24T13:40:26.941Z,6.20
2019-01-24T13:42:53.521Z,7.35
2019-01-24T13:45:21.924Z,7.12
2019-01-24T13:47:48.520Z,7.12
2019-01-24T13:50:15.099Z,6.80
2019-01-24T13:52:41.736Z,6.47
2019-01-24T13:55:08.347Z,7.00
2019-01-24T13:57:34.979Z,6.90
2019-01-24T14:00:01.630Z,7.28
2019-01-24T14:02:28.220Z,6.97
2019-01-24T14:04:54.795Z,7.22
2019-01-24T14:07:21.418Z,7.00
2019-01-24T14:09:48.051Z,6.67
2019-01-24T14:12:14.629Z,7.60
2019-01-24T14:14:41.311Z,7.20
2019-01-24T14:17:07.890Z,6.40
2019-01-24T14:19:52.798Z,7.08
2019-01-24T14:22:19.416Z,6.62
2019-01-24T14:24:46.078Z,6.17
2019-01-24T14:27:12.775Z,7.15
2019-01-24T14:29:39.516Z,8.00
2019-01-24T14:32:06.085Z,6.85
2019-01-24T14:34:32.700Z,7.65
2019-01-24T14:36:59.387Z,6.75
2019-01-24T14:39:25.959Z,6.47
2019-01-24T14:41:52.562Z,6.62
2019-01-24T14:44:19.219Z,7.05
2019-01-24T14:46:45.822Z,6.80
2019-01-24T14:49:12.405Z,7.22
2019-01-24T14:51:39.021Z,6.80
2019-01-24T14:54:05.587Z,6.85
2019-01-24T14:56:32.183Z,7.17
2019-01-24T14:58:58.858Z,7.30
2019-01-24T15:01:25.423Z,7.10
2019-01-24T15:03:52.008Z,7.10
2019-01-24T15:06:18.706Z,6.70
2019-01-24T15:08:45.304Z,7.00
2019-01-24T15:11:12.983Z,7.83
2019-01-24T15:13:39.606Z,6.83
2019-01-24T15:16:06.186Z,6.65
2019-01-24T15:18:33.061Z,6.65
2019-01-24T15:20:59.721Z,7.10
2019-01-24T15:23:26.290Z,7.05
2019-01-24T15:25:52.878Z,6.25
2019-01-24T15:28:19.523Z,7.33
2019-01-24T15:30:46.090Z,7.17
2019-01-24T15:33:12.673Z,6.95
2019-01-24T15:35:39.289Z,6.62
2019-01-24T15:38:05.903Z,7.10
2019-01-24T15:40:32.471Z,7.30
2019-01-24T15:42:59.198Z,7.12
2019-01-24T15:45:25.778Z,6.92
2019-01-24T15:47:52.357Z,6.83
2019-01-24T15:50:18.979Z,6.87
2019-01-24T15:52:45.562Z,7.22
2019-01-24T15:55:12.141Z,7.33
2019-01-24T15:57:38.761Z,6.53
2019-01-24T16:00:05.343Z,8.00
2019-01-24T16:02:31.931Z,7.22
2019-01-24T16:04:58.593Z,7.72
2019-01-24T16:07:25.204Z,7.92
2019-01-24T16:09:51.773Z,6.65
2019-01-24T16:12:18.398Z,7.75
2019-01-24T16:14:45.580Z,7.87
2019-01-24T16:17:12.201Z,7.50
2019-01-24T16:19:39.757Z,7.33
2019-01-24T16:24:52.690Z,6.90
2019-01-24T16:27:19.613Z,6.85
2019-01-24T16:29:46.788Z,6.67
2019-01-24T16:32:14.139Z,7.17
2019-01-24T16:34:41.036Z,7.70
2019-01-24T16:37:07.904Z,6.90
2019-01-24T16:39:34.769Z,7.53
2019-01-24T16:42:01.345Z,7.28
2019-01-24T16:44:27.959Z,7.45
2019-01-24T16:46:54.817Z,7.37
2019-01-24T16:49:21.401Z,7.28
2019-01-24T16:51:47.973Z,7.22
2019-01-24T16:54:14.598Z,7.17
2019-01-24T16:56:41.179Z,7.50
2019-01-24T16:59:07.761Z,7.55
2019-01-24T17:01:34.387Z,7.20
2019-01-24T17:04:00.958Z,7.15
2019-01-24T17:06:27.541Z,6.87
2019-01-24T17:08:54.358Z,6.25
2019-01-24T17:11:20.915Z,6.67
2019-01-24T17:13:47.522Z,7.03
2019-01-24T17:16:14.155Z,7.53
2019-01-24T17:18:40.715Z,8.48
2019-01-24T17:21:11.317Z,8.20
2019-01-24T17:23:38.454Z,7.62
2019-01-24T17:26:07.162Z,7.35
2019-01-24T17:28:37.513Z,7.33
2019-01-24T17:31:04.621Z,7.67
2019-01-24T17:33:32.015Z,7.10
2019-01-24T17:35:58.624Z,7.03
2019-01-24T17:38:26.357Z,7.72
2019-01-24T17:40:54.023Z,7.47
2019-01-24T17:43:20.599Z,7.20
2019-01-24T17:45:47.351Z,6.53
2019-01-24T17:48:13.927Z,7.55
2019-01-24T17:50:40.546Z,7.22
2019-01-24T17:53:07.205Z,6.97
2019-01-24T17:55:34.248Z,7.28
2019-01-24T17:58:01.134Z,6.78
2019-01-24T18:00:27.802Z,7.10
2019-01-24T18:02:54.378Z,6.95
2019-01-24T18:05:20.973Z,7.15
2019-01-24T18:07:47.648Z,6.58
2019-01-24T18:10:14.305Z,6.72
2019-01-24T18:12:40.912Z,6.95
2019-01-24T18:15:07.698Z,7.47
2019-01-24T18:17:34.343Z,7.40
2019-01-24T18:20:00.937Z,6.87
2019-01-24T18:22:27.550Z,7.00
2019-01-24T18:24:54.125Z,7.17
2019-01-24T18:27:20.704Z,7.50
2019-01-24T18:29:48.867Z,6.67
2019-01-24T18:32:15.607Z,7.35
2019-01-24T18:34:42.274Z,7.22
2019-01-24T18:37:09.070Z,6.40
2019-01-24T18:39:35.656Z,6.62
2019-01-24T18:42:02.222Z,7.22
2019-01-24T18:44:28.831Z,7.33
2019-01-24T18:46:55.399Z,6.75
2019-01-24T18:49:21.970Z,7.42
2019-01-24T18:51:48.642Z,7.10
2019-01-24T18:54:15.969Z,6.50
2019-01-24T18:56:42.595Z,6.60
2019-01-24T18:59:09.351Z,6.87
2019-01-24T19:01:35.930Z,6.72
2019-01-24T19:04:02.500Z,6.67
2019-01-24T19:06:29.117Z,6.47
2019-01-24T19:08:55.693Z,6.37
2019-01-24T19:11:22.339Z,7.37
2019-01-24T19:13:48.955Z,6.08
2019-01-24T19:16:15.523Z,6.97
2019-01-24T19:18:42.126Z,6.53
2019-01-24T19:21:09.098Z,7.80
2019-01-24T19:23:35.675Z,6.78
2019-01-24T19:26:02.321Z,6.97
2019-01-24T19:28:28.983Z,6.72
2019-01-24T19:30:55.636Z,7.40
2019-01-24T19:33:22.201Z,6.50
2019-01-24T19:35:48.842Z,7.67
2019-01-24T19:38:15.420Z,7.72
2019-01-24T19:40:42.001Z,6.87
2019-01-24T19:43:08.650Z,7.25
2019-01-24T19:45:35.267Z,6.90
2019-01-24T19:48:01.839Z,6.47
2019-01-24T19:50:28.488Z,6.67
2019-01-24T19:52:55.136Z,7.15
2019-01-24T19:55:21.739Z,6.60
2019-01-24T19:57:48.443Z,7.42
2019-01-24T20:00:15.051Z,7.42
2019-01-24T20:02:41.634Z,7.12
2019-01-24T20:05:08.281Z,7.03
2019-01-24T20:07:34.879Z,6.20
2019-01-24T20:10:02.064Z,6.50
2019-01-24T20:12:28.695Z,7.25
2019-01-24T20:14:55.273Z,6.90
2019-01-24T20:17:21.860Z,6.83
2019-01-24T20:19:49.346Z,7.15
2019-01-24T20:22:15.943Z,6.40
2019-01-24T20:24:42.520Z,6.35
2019-01-24T20:27:09.238Z,7.10
2019-01-24T20:29:35.815Z,6.87
2019-01-24T20:32:02.398Z,7.08
2019-01-24T20:34:29.019Z,7.80
2019-01-24T20:36:55.643Z,6.78
2019-01-24T20:39:22.330Z,6.83
2019-01-24T20:41:50.981Z,7.15
2019-01-24T20:44:17.550Z,8.00
2019-01-24T20:46:44.132Z,7.03
2019-01-24T20:49:10.816Z,6.95
2019-01-24T20:51:37.393Z,6.40
2019-01-24T20:54:04.003Z,6.40
2019-01-24T20:56:30.617Z,6.70
2019-01-24T20:58:57.203Z,7.33
2019-01-24T21:01:23.777Z,7.15
2019-01-24T21:03:55.288Z,7.40
2019-01-24T21:06:18.712Z,7.00
2019-01-24T21:08:45.450Z,6.67
2019-01-24T21:11:12.420Z,7.47
2019-01-24T21:13:39.007Z,7.58
2019-01-24T21:16:05.571Z,7.45
2019-01-24T21:18:32.191Z,7.30
2019-01-24T21:20:58.773Z,7.20
2019-01-24T21:23:25.347Z,7.97
2019-01-24T21:25:51.984Z,7.10
2019-01-24T21:28:18.542Z,7.08
2019-01-24T21:30:45.214Z,7.40
2019-01-24T21:33:11.893Z,6.65
2019-01-24T21:35:38.571Z,7.83
2019-01-24T21:38:05.151Z,6.47
2019-01-24T21:40:31.771Z,7.40
2019-01-24T21:42:58.346Z,7.37
2019-01-24T21:45:24.917Z,7.28
2019-01-24T21:47:51.549Z,8.05
2019-01-24T21:50:18.136Z,8.48
2019-01-24T21:52:44.697Z,7.72
2019-01-24T21:55:11.319Z,7.60
2019-01-24T21:57:37.903Z,7.20
2019-01-24T22:00:04.471Z,9.05
2019-01-24T22:02:31.122Z,8.40
2019-01-24T22:04:57.704Z,7.95
2019-01-24T22:07:24.322Z,7.87
2019-01-24T22:09:50.991Z,8.60
2019-01-24T22:12:17.572Z,9.10
2019-01-24T22:14:44.143Z,8.43
2019-01-24T22:17:10.769Z,8.68
2019-01-24T22:19:37.348Z,8.35
2019-01-24T22:22:03.938Z,8.68
2019-01-24T22:24:30.560Z,8.13
2019-01-24T22:26:57.141Z,8.78
2019-01-24T22:29:23.723Z,8.30
2019-01-24T22:31:50.557Z,8.23
2019-01-24T22:34:17.136Z,8.23
2019-01-24T22:36:43.705Z,8.63
2019-01-24T22:39:10.320Z,8.83
2019-01-24T22:41:36.903Z,7.95
2019-01-24T22:44:03.478Z,9.00
2019-01-24T22:46:30.096Z,8.18
2019-01-24T22:48:56.731Z,8.93
2019-01-24T22:51:23.324Z,8.73
2019-01-24T22:53:49.993Z,9.38
2019-01-24T22:56:16.571Z,8.55
2019-01-24T22:58:43.188Z,8.23
2019-01-24T23:01:09.830Z,7.53
2019-01-24T23:03:36.403Z,9.15
2019-01-24T23:06:03.001Z,9.88
2019-01-24T23:08:29.607Z,8.33
2019-01-24T23:10:56.187Z,9.35
2019-01-24T23:13:22.806Z,8.75
2019-01-24T23:15:49.730Z,8.63
2019-01-24T23:18:16.302Z,7.78
2019-01-24T23:20:42.879Z,7.60
2019-01-24T23:23:09.508Z,8.10
2019-01-24T23:25:36.111Z,8.55
2019-01-24T23:28:02.717Z,7.35
2019-01-24T23:30:29.338Z,8.35
2019-01-24T23:32:55.915Z,8.00
2019-01-24T23:35:22.484Z,8.30
2019-01-24T23:37:52.452Z,8.25
2019-01-24T23:40:17.431Z,8.68
2019-01-24T23:42:44.006Z,8.48
2019-01-24T23:45:10.648Z,7.75
2019-01-24T23:47:37.223Z,8.05
2019-01-24T23:50:03.797Z,7.72
2019-01-24T23:52:31.755Z,8.38
2019-01-24T23:54:58.399Z,7.42
2019-01-24T23:57:24.976Z,7.62
2019-01-24T23:59:51.637Z,8.73
